createdAt,value
2022-12-19T00:00:27.955Z,-4.81
2022-12-19T00:01:33.938Z,-4.86
2022-12-19T00:02:39.271Z,-4.85
2022-12-19T00:03:47.125Z,-4.84
2022-12-19T00:04:49.339Z,-4.83
2022-12-19T00:05:54.408Z,-4.84
2022-12-19T00:07:05.525Z,-4.87
2022-12-19T00:08:17.615Z,-4.90
2022-12-19T00:09:20.231Z,-4.88
2022-12-19T00:10:22.519Z,-4.91
2022-12-19T00:11:25.638Z,-4.91
2022-12-19T00:12:31.157Z,-4.92
2022-12-19T00:13:40.752Z,-4.92
2022-12-19T00:14:47.556Z,-4.92
2022-12-19T00:15:49.835Z,-4.97
2022-12-19T00:16:53.506Z,-4.97
2022-12-19T00:17:56.784Z,-4.97
2022-12-19T00:19:00.780Z,-4.97
2022-12-19T00:20:04.097Z,-4.98
2022-12-19T00:21:07.102Z,-4.96
2022-12-19T00:22:11.307Z,-4.97
2022-12-19T00:23:13.682Z,-4.97
2022-12-19T00:24:21.236Z,-4.98
2022-12-19T00:25:24.007Z,-4.99
2022-12-19T00:26:36.792Z,-5.02
2022-12-19T00:27:39.817Z,-4.98
2022-12-19T00:28:44.388Z,-4.95
2022-12-19T00:29:46.659Z,-4.99
2022-12-19T00:30:48.985Z,-4.97
2022-12-19T00:31:51.316Z,-4.97
2022-12-19T00:32:56.130Z,-4.96
2022-12-19T00:33:58.365Z,-4.97
2022-12-19T00:35:01.168Z,-4.95
2022-12-19T00:36:07.261Z,-4.92
2022-12-19T00:37:09.471Z,-4.95
2022-12-19T00:38:11.870Z,-4.93
2022-12-19T00:39:14.327Z,-4.94
2022-12-19T00:40:16.762Z,-4.96
2022-12-19T00:41:25.266Z,-4.95
2022-12-19T00:42:36.687Z,-4.95
2022-12-19T00:43:39.462Z,-4.94
2022-12-19T00:44:41.768Z,-5.00
2022-12-19T00:45:44.064Z,-5.01
2022-12-19T00:46:52.366Z,-4.99
2022-12-19T00:47:57.422Z,-5.03
2022-12-19T00:49:00.569Z,-5.06
2022-12-19T00:50:05.946Z,-5.06
2022-12-19T00:51:20.258Z,-5.06
2022-12-19T00:52:22.515Z,-5.09
2022-12-19T00:53:25.765Z,-5.11
2022-12-19T00:54:28.004Z,-5.12
2022-12-19T00:55:30.753Z,-5.11
2022-12-19T00:56:37.710Z,-5.16
2022-12-19T00:57:42.882Z,-5.14
2022-12-19T00:58:47.499Z,-5.14
2022-12-19T00:59:50.789Z,-5.15
2022-12-19T01:00:53.823Z,-5.20
2022-12-19T01:01:56.286Z,-5.19
2022-12-19T01:02:59.902Z,-5.17
2022-12-19T01:05:28.237Z,-5.20
2022-12-19T01:06:30.807Z,-5.18
2022-12-19T01:07:34.091Z,-5.16
2022-12-19T01:08:36.989Z,-5.19
2022-12-19T01:09:39.995Z,-5.20
2022-12-19T01:10:49.649Z,-5.17
2022-12-19T01:12:13.905Z,-5.20
2022-12-19T01:13:19.783Z,-5.20
2022-12-19T01:14:23.166Z,-5.19
2022-12-19T01:15:26.037Z,-5.18
2022-12-19T01:16:28.323Z,-5.19
2022-12-19T01:17:30.595Z,-5.21
2022-12-19T01:18:33.021Z,-5.23
2022-12-19T01:19:40.366Z,-5.28
2022-12-19T01:20:49.246Z,-5.27
2022-12-19T01:21:51.470Z,-5.27
2022-12-19T01:22:54.342Z,-5.28
2022-12-19T01:23:56.756Z,-5.25
2022-12-19T01:24:59.010Z,-5.28
2022-12-19T01:26:01.480Z,-5.26
2022-12-19T01:27:03.797Z,-5.25
2022-12-19T01:28:07.603Z,-5.29
2022-12-19T01:29:09.926Z,-5.30
2022-12-19T01:30:13.047Z,-5.28
2022-12-19T01:31:16.036Z,-5.28
2022-12-19T01:32:21.920Z,-5.26
2022-12-19T01:33:24.272Z,-5.24
2022-12-19T01:34:26.785Z,-5.27
2022-12-19T01:35:29.183Z,-5.29
2022-12-19T01:36:31.375Z,-5.27
2022-12-19T01:37:33.660Z,-5.28
2022-12-19T01:38:36.588Z,-5.29
2022-12-19T01:39:38.774Z,-5.25
2022-12-19T01:40:58.076Z,-5.29
2022-12-19T01:42:01.214Z,-5.28
2022-12-19T01:43:04.782Z,-5.26
2022-12-19T01:44:11.996Z,-5.28
2022-12-19T01:45:17.303Z,-5.28
2022-12-19T01:46:43.089Z,-5.29
2022-12-19T01:48:23.659Z,-5.28
2022-12-19T01:49:31.188Z,-5.28
2022-12-19T01:50:47.069Z,-5.27
2022-12-19T01:52:10.363Z,-5.29
2022-12-19T01:53:29.577Z,-5.28
2022-12-19T01:54:38.717Z,-5.28
2022-12-19T01:55:42.667Z,-5.28
2022-12-19T01:56:49.740Z,-5.28
2022-12-19T01:57:57.656Z,-5.29
2022-12-19T01:59:07.079Z,-5.31
2022-12-19T02:00:12.768Z,-5.34
2022-12-19T02:01:18.092Z,-5.36
2022-12-19T02:02:33.702Z,-5.39
2022-12-19T02:03:37.306Z,-5.39
2022-12-19T02:04:41.203Z,-5.42
2022-12-19T02:05:46.813Z,-5.46
2022-12-19T02:06:51.123Z,-5.48
2022-12-19T02:07:53.982Z,-5.53
2022-12-19T02:08:56.573Z,-5.53
2022-12-19T02:09:59.320Z,-5.53
2022-12-19T02:11:09.736Z,-5.52
2022-12-19T02:12:14.856Z,-5.53
2022-12-19T02:13:17.903Z,-5.50
2022-12-19T02:14:20.638Z,-5.52
2022-12-19T02:15:23.970Z,-5.50
2022-12-19T02:16:53.900Z,-5.48
2022-12-19T02:18:02.107Z,-5.51
2022-12-19T02:19:26.707Z,-5.51
2022-12-19T02:20:44.786Z,-5.50
2022-12-19T02:21:49.890Z,-5.50
2022-12-19T02:23:02.711Z,-5.50
2022-12-19T02:24:18.376Z,-5.50
2022-12-19T02:25:55.783Z,-5.57
2022-12-19T02:27:25.680Z,-5.58
2022-12-19T02:28:40.338Z,-5.58
2022-12-19T02:30:04.842Z,-5.60
2022-12-19T02:31:17.467Z,-5.60
2022-12-19T02:32:31.508Z,-5.58
2022-12-19T02:33:56.381Z,-5.61
2022-12-19T02:35:00.239Z,-5.61
2022-12-19T02:36:11.793Z,-5.61
2022-12-19T02:37:20.927Z,-5.65
2022-12-19T02:38:48.296Z,-5.67
2022-12-19T02:39:59.036Z,-5.64
2022-12-19T02:41:08.080Z,-5.62
2022-12-19T02:42:15.303Z,-5.61
2022-12-19T02:43:22.743Z,-5.64
2022-12-19T02:44:49.065Z,-5.61
2022-12-19T02:45:52.923Z,-5.61
2022-12-19T02:46:57.229Z,-5.61
2022-12-19T02:48:08.648Z,-5.62
2022-12-19T02:49:17.837Z,-5.61
2022-12-19T02:50:36.299Z,-5.58
2022-12-19T02:51:38.808Z,-5.60
2022-12-19T02:52:44.978Z,-5.67
2022-12-19T02:53:49.856Z,-5.68
2022-12-19T02:54:56.283Z,-5.64
2022-12-19T02:56:27.321Z,-5.62
2022-12-19T02:57:39.910Z,-5.60
2022-12-19T02:58:46.215Z,-5.57
2022-12-19T03:00:13.019Z,-5.55
2022-12-19T03:02:20.321Z,-5.55
2022-12-19T03:03:45.102Z,-5.51
2022-12-19T03:04:59.726Z,-5.49
2022-12-19T03:06:39.590Z,-5.48
2022-12-19T03:07:42.285Z,-5.47
2022-12-19T03:08:48.656Z,-5.46
2022-12-19T03:10:17.269Z,-5.46
2022-12-19T03:11:23.401Z,-5.42
2022-12-19T03:12:32.336Z,-5.43
2022-12-19T03:14:03.800Z,-5.41
2022-12-19T03:15:07.518Z,-5.37
2022-12-19T03:16:11.329Z,-5.38
2022-12-19T03:17:13.690Z,-5.37
2022-12-19T03:18:16.026Z,-5.37
2022-12-19T03:19:18.389Z,-5.38
2022-12-19T03:20:32.445Z,-5.37
2022-12-19T03:21:40.456Z,-5.34
2022-12-19T03:22:42.967Z,-5.35
2022-12-19T03:23:47.332Z,-5.32
2022-12-19T03:24:49.691Z,-5.34
2022-12-19T03:25:59.068Z,-5.33
2022-12-19T03:27:12.874Z,-5.31
2022-12-19T03:28:41.507Z,-5.29
2022-12-19T03:29:56.012Z,-5.29
2022-12-19T03:31:00.994Z,-5.28
2022-12-19T03:32:05.738Z,-5.25
2022-12-19T03:33:11.639Z,-5.27
2022-12-19T03:34:41.951Z,-5.24
2022-12-19T03:35:46.969Z,-5.19
2022-12-19T03:36:57.281Z,-5.15
2022-12-19T03:38:03.131Z,-5.14
2022-12-19T03:39:08.578Z,-5.13
2022-12-19T03:40:15.894Z,-5.14
2022-12-19T03:41:40.900Z,-5.13
2022-12-19T03:43:05.188Z,-5.10
2022-12-19T03:44:11.593Z,-5.09
2022-12-19T03:45:21.118Z,-5.08
2022-12-19T03:46:29.269Z,-5.07
2022-12-19T03:47:38.285Z,-5.04
2022-12-19T03:48:47.537Z,-5.02
2022-12-19T03:49:50.731Z,-5.05
2022-12-19T03:51:31.739Z,-5.06
2022-12-19T03:52:35.691Z,-5.04
2022-12-19T03:53:43.797Z,-5.02
2022-12-19T03:54:55.003Z,-5.01
2022-12-19T03:56:22.818Z,-4.99
2022-12-19T03:57:55.596Z,-4.99
2022-12-19T03:59:12.957Z,-4.97
2022-12-19T04:00:17.680Z,-4.93
2022-12-19T04:01:21.771Z,-4.92
2022-12-19T04:02:25.201Z,-4.91
2022-12-19T04:03:29.633Z,-4.88
2022-12-19T04:04:37.152Z,-4.84
2022-12-19T04:05:42.079Z,-4.84
2022-12-19T04:06:45.802Z,-4.84
2022-12-19T04:07:52.439Z,-4.87
2022-12-19T04:08:55.709Z,-4.89
2022-12-19T04:10:00.470Z,-4.84
2022-12-19T04:11:07.557Z,-4.81
2022-12-19T04:12:15.550Z,-4.81
2022-12-19T04:13:23.893Z,-4.79
2022-12-19T04:14:35.748Z,-4.78
2022-12-19T04:15:45.031Z,-4.76
2022-12-19T04:16:52.486Z,-4.74
2022-12-19T04:17:58.018Z,-4.72
2022-12-19T04:19:10.518Z,-4.69
2022-12-19T04:20:20.981Z,-4.68
2022-12-19T04:21:39.229Z,-4.71
2022-12-19T04:22:50.985Z,-4.68
2022-12-19T04:24:02.264Z,-4.64
2022-12-19T04:25:24.014Z,-4.61
2022-12-19T04:26:33.332Z,-4.59
2022-12-19T04:27:38.892Z,-4.56
2022-12-19T04:29:01.190Z,-4.55
2022-12-19T04:30:08.613Z,-4.57
2022-12-19T04:31:15.797Z,-4.56
2022-12-19T04:32:19.386Z,-4.57
2022-12-19T04:33:21.636Z,-4.54
2022-12-19T04:34:24.038Z,-4.56
2022-12-19T04:35:26.469Z,-4.57
2022-12-19T04:36:29.137Z,-4.54
2022-12-19T04:37:31.915Z,-4.50
2022-12-19T04:38:34.889Z,-4.49
2022-12-19T04:39:37.222Z,-4.47
2022-12-19T04:40:41.649Z,-4.47
2022-12-19T04:41:44.130Z,-4.46
2022-12-19T04:42:46.477Z,-4.43
2022-12-19T04:43:48.969Z,-4.42
2022-12-19T04:44:51.845Z,-4.42
2022-12-19T04:45:57.898Z,-4.45
2022-12-19T04:47:00.301Z,-4.46
2022-12-19T04:48:02.799Z,-4.42
2022-12-19T04:49:05.121Z,-4.40
2022-12-19T04:50:07.583Z,-4.40
2022-12-19T04:51:09.844Z,-4.38
2022-12-19T04:52:12.142Z,-4.35
2022-12-19T04:53:14.523Z,-4.34
2022-12-19T04:54:16.896Z,-4.35
2022-12-19T04:55:19.267Z,-4.34
2022-12-19T04:56:21.634Z,-4.33
2022-12-19T04:57:23.983Z,-4.31
2022-12-19T04:58:27.868Z,-4.33
2022-12-19T04:59:30.236Z,-4.30
2022-12-19T05:00:33.582Z,-4.32
2022-12-19T05:01:35.927Z,-4.29
2022-12-19T05:02:38.943Z,-4.29
2022-12-19T05:03:41.726Z,-4.26
2022-12-19T05:04:44.105Z,-4.24
2022-12-19T05:05:46.445Z,-4.21
2022-12-19T05:06:49.000Z,-4.18
2022-12-19T05:07:51.798Z,-4.18
2022-12-19T05:08:54.254Z,-4.18
2022-12-19T05:09:56.631Z,-4.17
2022-12-19T05:11:05.426Z,-4.14
2022-12-19T05:12:07.795Z,-4.14
2022-12-19T05:13:10.127Z,-4.12
2022-12-19T05:14:12.702Z,-4.11
2022-12-19T05:15:14.979Z,-4.10
2022-12-19T05:16:17.649Z,-4.12
2022-12-19T05:17:20.001Z,-4.11
2022-12-19T05:18:22.218Z,-4.11
2022-12-19T05:19:24.681Z,-4.12
2022-12-19T05:20:26.924Z,-4.11
2022-12-19T05:21:29.148Z,-4.09
2022-12-19T05:22:31.397Z,-4.09
2022-12-19T05:23:36.067Z,-4.06
2022-12-19T05:24:38.323Z,-4.06
2022-12-19T05:25:40.661Z,-4.07
2022-12-19T05:26:42.930Z,-4.06
2022-12-19T05:27:45.252Z,-4.04
2022-12-19T05:28:47.777Z,-4.04
2022-12-19T05:29:50.048Z,-4.03
2022-12-19T05:30:52.756Z,-4.03
2022-12-19T05:31:55.286Z,-4.04
2022-12-19T05:32:57.533Z,-4.05
2022-12-19T05:34:00.024Z,-4.06
2022-12-19T05:35:02.737Z,-4.07
2022-12-19T05:36:05.711Z,-4.05
2022-12-19T05:37:08.790Z,-4.04
2022-12-19T05:38:11.016Z,-4.05
2022-12-19T05:39:13.279Z,-4.06
2022-12-19T05:40:15.551Z,-4.04
2022-12-19T05:41:19.845Z,-4.01
2022-12-19T05:42:22.173Z,-4.01
2022-12-19T05:43:24.479Z,-4.02
2022-12-19T05:44:26.892Z,-4.04
2022-12-19T05:45:29.395Z,-4.06
2022-12-19T05:46:31.658Z,-4.08
2022-12-19T05:47:34.131Z,-4.08
2022-12-19T05:48:36.864Z,-4.05
2022-12-19T05:49:39.101Z,-4.06
2022-12-19T05:50:41.655Z,-4.06
2022-12-19T05:51:44.832Z,-4.04
2022-12-19T05:52:47.459Z,-4.03
2022-12-19T05:53:50.049Z,-4.03
2022-12-19T05:54:52.372Z,-4.04
2022-12-19T05:56:10.102Z,-4.06
2022-12-19T05:57:14.463Z,-4.05
2022-12-19T05:58:16.828Z,-4.04
2022-12-19T05:59:19.029Z,-4.03
2022-12-19T06:00:22.586Z,-4.03
2022-12-19T06:01:27.226Z,-4.03
2022-12-19T06:02:33.730Z,-4.04
2022-12-19T06:03:36.653Z,-4.03
2022-12-19T06:04:39.004Z,-4.04
2022-12-19T06:05:41.416Z,-4.03
2022-12-19T06:06:44.502Z,-4.00
2022-12-19T06:07:46.783Z,-3.99
2022-12-19T06:08:53.585Z,-3.97
2022-12-19T06:09:55.947Z,-3.94
2022-12-19T06:11:02.892Z,-3.96
2022-12-19T06:12:06.334Z,-3.99
2022-12-19T06:13:09.338Z,-4.00
2022-12-19T06:14:11.630Z,-4.00
2022-12-19T06:15:13.903Z,-3.99
2022-12-19T06:16:19.132Z,-4.03
2022-12-19T06:17:21.533Z,-4.00
2022-12-19T06:18:23.966Z,-3.99
2022-12-19T06:19:26.532Z,-4.00
2022-12-19T06:20:28.835Z,-4.00
2022-12-19T06:21:31.143Z,-3.98
2022-12-19T06:22:35.077Z,-3.98
2022-12-19T06:23:37.726Z,-3.97
2022-12-19T06:24:40.099Z,-3.94
2022-12-19T06:25:42.383Z,-3.92
2022-12-19T06:26:45.291Z,-3.90
2022-12-19T06:27:47.569Z,-3.93
2022-12-19T06:28:51.956Z,-3.90
2022-12-19T06:29:54.576Z,-3.88
2022-12-19T06:31:03.451Z,-3.88
2022-12-19T06:32:06.000Z,-3.85
2022-12-19T06:33:13.769Z,-3.83
2022-12-19T06:34:39.403Z,-3.82
2022-12-19T06:35:39.188Z,-3.83
2022-12-19T06:36:41.513Z,-3.81
2022-12-19T06:37:43.746Z,-3.82
2022-12-19T06:38:46.627Z,-3.80
2022-12-19T06:39:50.986Z,-3.80
2022-12-19T06:41:11.862Z,-3.81
2022-12-19T06:42:23.658Z,-3.79
2022-12-19T06:43:26.433Z,-3.79
2022-12-19T06:44:28.650Z,-3.76
2022-12-19T06:45:31.445Z,-3.74
2022-12-19T06:46:34.390Z,-3.75
2022-12-19T06:47:36.613Z,-3.75
2022-12-19T06:48:38.824Z,-3.73
2022-12-19T06:49:41.023Z,-3.72
2022-12-19T06:50:43.250Z,-3.69
2022-12-19T06:51:46.440Z,-3.67
2022-12-19T06:52:48.873Z,-3.68
2022-12-19T06:53:51.719Z,-3.66
2022-12-19T06:54:54.067Z,-3.65
2022-12-19T06:55:58.950Z,-3.64
2022-12-19T06:57:01.461Z,-3.61
2022-12-19T06:58:04.501Z,-3.61
2022-12-19T06:59:07.788Z,-3.63
2022-12-19T07:00:11.079Z,-3.62
2022-12-19T07:01:43.976Z,-3.61
2022-12-19T07:02:50.709Z,-3.60
2022-12-19T07:03:57.259Z,-3.57
2022-12-19T07:05:07.523Z,-3.59
2022-12-19T07:06:09.913Z,-3.60
2022-12-19T07:07:12.341Z,-3.58
2022-12-19T07:08:14.823Z,-3.61
2022-12-19T07:09:18.168Z,-3.60
2022-12-19T07:10:20.551Z,-3.56
2022-12-19T07:11:22.928Z,-3.54
2022-12-19T07:12:26.613Z,-3.53
2022-12-19T07:13:31.499Z,-3.54
2022-12-19T07:14:33.954Z,-3.55
2022-12-19T07:15:41.092Z,-3.52
2022-12-19T07:16:45.725Z,-3.52
2022-12-19T07:17:48.310Z,-3.54
2022-12-19T07:18:50.624Z,-3.52
2022-12-19T07:19:58.077Z,-3.50
2022-12-19T07:21:01.741Z,-3.50
2022-12-19T07:22:05.308Z,-3.52
2022-12-19T07:23:09.370Z,-3.52
2022-12-19T07:24:12.555Z,-3.51
2022-12-19T07:25:14.919Z,-3.49
2022-12-19T07:26:17.633Z,-3.49
2022-12-19T07:27:23.330Z,-3.48
2022-12-19T07:28:25.710Z,-3.49
2022-12-19T07:29:28.287Z,-3.51
2022-12-19T07:30:30.662Z,-3.47
2022-12-19T07:31:33.109Z,-3.44
2022-12-19T07:32:35.652Z,-3.45
2022-12-19T07:33:37.838Z,-3.43
2022-12-19T07:34:40.147Z,-3.43
2022-12-19T07:35:42.428Z,-3.42
2022-12-19T07:36:44.642Z,-3.42
2022-12-19T07:37:47.553Z,-3.44
2022-12-19T07:38:53.822Z,-3.43
2022-12-19T07:39:56.070Z,-3.43
2022-12-19T07:41:01.512Z,-3.42
2022-12-19T07:42:03.947Z,-3.41
2022-12-19T07:43:11.181Z,-3.38
2022-12-19T07:44:16.466Z,-3.39
2022-12-19T07:45:18.796Z,-3.39
2022-12-19T07:46:22.136Z,-3.38
2022-12-19T07:47:27.629Z,-3.38
2022-12-19T07:48:31.504Z,-3.35
2022-12-19T07:49:33.719Z,-3.38
2022-12-19T07:50:36.029Z,-3.36
2022-12-19T07:51:38.264Z,-3.35
2022-12-19T07:52:40.621Z,-3.39
2022-12-19T07:53:42.856Z,-3.37
2022-12-19T07:54:45.113Z,-3.32
2022-12-19T07:55:51.074Z,-3.33
2022-12-19T07:56:53.368Z,-3.32
2022-12-19T07:57:55.866Z,-3.30
2022-12-19T07:58:58.153Z,-3.31
2022-12-19T08:00:00.450Z,-3.31
2022-12-19T08:01:03.305Z,-3.30
2022-12-19T08:02:06.527Z,-3.28
2022-12-19T08:03:10.365Z,-3.26
2022-12-19T08:04:13.797Z,-3.24
2022-12-19T08:05:16.192Z,-3.23
2022-12-19T08:06:19.845Z,-3.20
2022-12-19T08:07:22.087Z,-3.21
2022-12-19T08:08:24.957Z,-3.23
2022-12-19T08:09:28.334Z,-3.24
2022-12-19T08:10:32.197Z,-3.23
2022-12-19T08:11:34.614Z,-3.21
2022-12-19T08:12:36.888Z,-3.19
2022-12-19T08:13:44.792Z,-3.15
2022-12-19T08:14:51.596Z,-3.14
2022-12-19T08:16:00.782Z,-3.15
2022-12-19T08:18:26.139Z,-3.10
2022-12-19T08:19:28.364Z,-3.07
2022-12-19T08:20:30.593Z,-3.04
2022-12-19T08:21:32.833Z,-3.05
2022-12-19T08:22:35.382Z,-3.05
2022-12-19T08:23:39.426Z,-3.04
2022-12-19T08:24:41.670Z,-3.02
2022-12-19T08:25:43.963Z,-3.00
2022-12-19T08:26:47.842Z,-3.00
2022-12-19T08:27:50.199Z,-2.97
2022-12-19T08:28:57.245Z,-2.93
2022-12-19T08:29:59.428Z,-2.94
2022-12-19T08:31:10.274Z,-2.92
2022-12-19T08:32:18.635Z,-2.92
2022-12-19T08:33:23.057Z,-2.90
2022-12-19T08:34:25.278Z,-2.91
2022-12-19T08:35:27.654Z,-2.87
2022-12-19T08:36:29.892Z,-2.85
2022-12-19T08:37:32.116Z,-2.82
2022-12-19T08:38:35.040Z,-2.81
2022-12-19T08:39:37.377Z,-2.80
2022-12-19T08:40:42.873Z,-2.80
2022-12-19T08:41:49.369Z,-2.78
2022-12-19T08:42:51.586Z,-2.77
2022-12-19T08:43:54.803Z,-2.77
2022-12-19T08:44:57.069Z,-2.78
2022-12-19T08:45:59.809Z,-2.75
2022-12-19T08:47:03.183Z,-2.73
2022-12-19T08:48:05.854Z,-2.71
2022-12-19T08:49:08.072Z,-2.78
2022-12-19T08:50:11.235Z,-2.74
2022-12-19T08:51:14.583Z,-2.73
2022-12-19T08:52:17.727Z,-2.69
2022-12-19T08:53:26.265Z,-2.67
2022-12-19T08:54:28.990Z,-2.64
2022-12-19T08:55:31.233Z,-2.62
2022-12-19T08:56:33.480Z,-2.59
2022-12-19T08:57:36.125Z,-2.58
2022-12-19T08:58:38.422Z,-2.56
2022-12-19T08:59:40.711Z,-2.53
2022-12-19T09:00:46.535Z,-2.54
2022-12-19T09:01:56.458Z,-2.51
2022-12-19T09:02:59.021Z,-2.52
2022-12-19T09:05:08.495Z,-2.50
2022-12-19T09:06:05.215Z,-2.49
2022-12-19T09:06:45.968Z,-2.46
2022-12-19T09:07:48.226Z,-2.47
2022-12-19T09:08:50.468Z,-2.43
2022-12-19T09:09:52.759Z,-2.44
2022-12-19T09:10:59.926Z,-2.41
2022-12-19T09:12:02.201Z,-2.39
2022-12-19T09:13:13.809Z,-2.38
2022-12-19T09:14:21.429Z,-2.34
2022-12-19T09:15:24.401Z,-2.34
2022-12-19T09:16:29.542Z,-2.32
2022-12-19T09:17:31.846Z,-2.29
2022-12-19T09:18:35.016Z,-2.28
2022-12-19T09:19:37.340Z,-2.23
2022-12-19T09:20:40.376Z,-2.22
2022-12-19T09:21:42.995Z,-2.21
2022-12-19T09:22:45.309Z,-2.22
2022-12-19T09:23:49.793Z,-2.16
2022-12-19T09:24:54.272Z,-2.17
2022-12-19T09:26:08.007Z,-2.12
2022-12-19T09:27:10.203Z,-2.11
2022-12-19T09:28:28.338Z,-2.09
2022-12-19T09:29:35.096Z,-2.09
2022-12-19T09:30:37.894Z,-2.07
2022-12-19T09:31:40.397Z,-2.06
2022-12-19T09:32:42.645Z,-2.03
2022-12-19T09:33:45.076Z,-2.04
2022-12-19T09:34:47.357Z,-2.02
2022-12-19T09:35:51.359Z,-2.02
2022-12-19T09:36:56.819Z,-2.06
2022-12-19T09:38:00.555Z,-2.03
2022-12-19T09:39:03.085Z,-2.03
2022-12-19T09:40:05.933Z,-2.02
2022-12-19T09:41:14.908Z,-2.03
2022-12-19T09:42:30.638Z,-1.97
2022-12-19T09:43:44.991Z,-1.95
2022-12-19T09:45:15.442Z,-1.93
2022-12-19T09:46:52.606Z,-1.91
2022-12-19T09:47:59.151Z,-1.96
2022-12-19T09:49:02.089Z,-1.90
2022-12-19T09:50:18.548Z,-1.90
2022-12-19T09:51:30.892Z,-1.91
2022-12-19T09:52:37.591Z,-1.90
2022-12-19T09:54:15.362Z,-1.89
2022-12-19T09:55:28.482Z,-1.88
2022-12-19T09:56:46.310Z,-1.85
2022-12-19T09:57:59.437Z,-1.86
2022-12-19T09:59:12.835Z,-1.82
2022-12-19T10:00:19.584Z,-1.81
2022-12-19T10:01:33.024Z,-1.81
2022-12-19T10:02:49.559Z,-1.78
2022-12-19T10:04:01.464Z,-1.80
2022-12-19T10:05:25.171Z,-1.80
2022-12-19T10:07:12.990Z,-1.77
2022-12-19T10:08:10.411Z,-1.76
2022-12-19T10:10:04.297Z,-1.79
2022-12-19T10:12:38.105Z,-1.76
2022-12-19T10:12:51.118Z,-1.74
2022-12-19T10:14:22.357Z,-1.71
2022-12-19T10:15:45.199Z,-1.70
2022-12-19T10:17:25.365Z,-1.66
2022-12-19T10:18:51.013Z,-1.67
2022-12-19T10:19:58.066Z,-1.66
2022-12-19T10:21:37.166Z,-1.67
2022-12-19T10:23:42.989Z,-1.61
2022-12-19T10:25:10.231Z,-1.58
2022-12-19T10:26:50.164Z,-1.58
2022-12-19T10:28:07.414Z,-1.56
2022-12-19T10:29:35.945Z,-1.53
2022-12-19T10:30:48.159Z,-1.48
2022-12-19T10:32:29.060Z,-1.45
2022-12-19T10:34:00.439Z,-1.43
2022-12-19T10:35:15.054Z,-1.39
2022-12-19T10:36:17.559Z,-1.37
2022-12-19T10:37:35.138Z,-1.34
2022-12-19T10:39:03.861Z,-1.31
2022-12-19T10:40:27.367Z,-1.26
2022-12-19T10:41:32.701Z,-1.19
2022-12-19T10:42:55.511Z,-1.15
2022-12-19T10:44:07.515Z,-1.17
2022-12-19T10:45:15.142Z,-1.11
2022-12-19T10:46:23.859Z,-1.07
2022-12-19T10:47:26.142Z,-1.05
2022-12-19T10:48:31.012Z,-1.01
2022-12-19T10:49:34.132Z,-0.99
2022-12-19T10:50:36.513Z,-0.97
2022-12-19T10:51:39.274Z,-0.97
2022-12-19T10:52:52.652Z,-0.91
2022-12-19T10:54:01.515Z,-0.89
2022-12-19T10:55:30.082Z,-0.85
2022-12-19T10:56:37.487Z,-0.85
2022-12-19T10:57:40.432Z,-0.84
2022-12-19T10:58:45.631Z,-0.83
2022-12-19T11:00:01.927Z,-0.79
2022-12-19T11:01:09.941Z,-0.78
2022-12-19T11:02:33.182Z,-0.75
2022-12-19T11:03:36.165Z,-0.74
2022-12-19T11:04:39.404Z,-0.69
2022-12-19T11:05:50.717Z,-0.68
2022-12-19T11:07:03.348Z,-0.65
2022-12-19T11:08:08.309Z,-0.65
2022-12-19T11:09:37.917Z,-0.60
2022-12-19T11:12:13.021Z,-0.60
2022-12-19T11:13:22.230Z,-0.60
2022-12-19T11:17:49.215Z,-0.57
2022-12-19T11:19:08.208Z,-0.53
2022-12-19T11:23:25.277Z,-0.52
2022-12-19T11:25:57.778Z,-0.50
2022-12-19T11:29:17.974Z,-0.46
2022-12-19T11:29:33.018Z,-0.44
2022-12-19T11:29:35.301Z,-0.44
2022-12-19T11:30:35.708Z,-0.42
2022-12-19T11:30:40.811Z,-0.43
2022-12-19T11:30:47.443Z,-0.39
2022-12-19T11:30:48.668Z,-0.42
2022-12-19T11:32:39.078Z,-0.40
2022-12-19T11:33:21.595Z,-0.43
2022-12-19T11:34:27.328Z,-0.44
2022-12-19T11:35:36.538Z,-0.45
2022-12-19T11:37:03.116Z,-0.44
2022-12-19T11:38:08.526Z,-0.43
2022-12-19T11:39:24.863Z,-0.46
2022-12-19T11:40:49.328Z,-0.43
2022-12-19T11:42:02.070Z,-0.42
2022-12-19T11:45:03.065Z,-0.40
2022-12-19T11:46:32.883Z,-0.39
2022-12-19T11:47:47.853Z,-0.41
2022-12-19T11:48:55.452Z,-0.41
2022-12-19T11:50:13.547Z,-0.41
2022-12-19T11:51:30.496Z,-0.44
2022-12-19T11:53:18.350Z,-0.44
2022-12-19T11:54:46.921Z,-0.45
2022-12-19T11:55:56.223Z,-0.48
2022-12-19T11:56:59.364Z,-0.49
2022-12-19T11:58:01.584Z,-0.51
2022-12-19T11:59:13.620Z,-0.51
2022-12-19T12:00:24.593Z,-0.55
2022-12-19T12:01:54.712Z,-0.54
2022-12-19T12:03:12.746Z,-0.51
2022-12-19T12:04:46.688Z,-0.51
2022-12-19T12:05:51.662Z,-0.51
2022-12-19T12:06:57.791Z,-0.49
2022-12-19T12:09:19.550Z,-0.47
2022-12-19T12:13:45.653Z,-0.47
2022-12-19T12:18:53.037Z,-0.49
2022-12-19T12:19:11.996Z,-0.51
2022-12-19T12:25:59.634Z,-0.49
2022-12-19T12:31:08.553Z,-0.48
2022-12-19T12:31:22.987Z,-0.48
2022-12-19T12:31:26.377Z,-0.48
2022-12-19T12:31:26.997Z,-0.49
2022-12-19T12:31:43.764Z,-0.47
2022-12-19T12:31:44.603Z,-0.47
2022-12-19T12:31:57.248Z,-0.46
2022-12-19T12:32:02.051Z,-0.47
2022-12-19T12:35:22.308Z,-0.43
2022-12-19T12:35:35.105Z,-0.42
2022-12-19T12:36:00.032Z,-0.42
2022-12-19T12:37:58.847Z,-0.46
2022-12-19T12:39:16.165Z,-0.47
2022-12-19T12:40:52.894Z,-0.50
2022-12-19T12:42:09.509Z,-0.49
2022-12-19T12:43:14.536Z,-0.50
2022-12-19T12:44:17.496Z,-0.51
2022-12-19T12:45:36.247Z,-0.55
2022-12-19T12:46:44.861Z,-0.51
2022-12-19T12:47:53.264Z,-0.53
2022-12-19T12:49:06.010Z,-0.55
2022-12-19T12:50:14.840Z,-0.51
2022-12-19T12:51:18.659Z,-0.51
2022-12-19T12:52:29.972Z,-0.50
2022-12-19T12:53:37.224Z,-0.49
2022-12-19T12:54:42.916Z,-0.49
2022-12-19T12:55:46.412Z,-0.46
2022-12-19T12:56:48.836Z,-0.46
2022-12-19T12:57:52.406Z,-0.46
2022-12-19T12:58:55.489Z,-0.47
2022-12-19T13:00:30.016Z,-0.46
2022-12-19T13:01:36.846Z,-0.46
2022-12-19T13:02:40.129Z,-0.47
2022-12-19T13:03:43.619Z,-0.46
2022-12-19T13:04:59.264Z,-0.46
2022-12-19T13:06:07.481Z,-0.45
2022-12-19T13:07:20.732Z,-0.48
2022-12-19T13:08:42.720Z,-0.48
2022-12-19T13:09:50.754Z,-0.48
2022-12-19T13:10:58.340Z,-0.47
2022-12-19T13:12:22.909Z,-0.47
2022-12-19T13:13:50.696Z,-0.51
2022-12-19T13:14:52.989Z,-0.50
2022-12-19T13:15:55.289Z,-0.47
2022-12-19T13:16:57.573Z,-0.49
2022-12-19T13:18:31.327Z,-0.50
2022-12-19T13:19:36.454Z,-0.51
2022-12-19T13:21:03.076Z,-0.55
2022-12-19T13:22:05.301Z,-0.56
2022-12-19T13:23:24.370Z,-0.56
2022-12-19T13:24:38.983Z,-0.56
2022-12-19T13:25:41.166Z,-0.56
2022-12-19T13:26:46.870Z,-0.55
2022-12-19T13:27:50.626Z,-0.57
2022-12-19T13:28:52.929Z,-0.58
2022-12-19T13:30:01.396Z,-0.61
2022-12-19T13:31:19.505Z,-0.61
2022-12-19T13:32:24.083Z,-0.61
2022-12-19T13:33:46.221Z,-0.60
2022-12-19T13:35:56.498Z,-0.60
2022-12-19T13:39:50.680Z,-0.65
2022-12-19T13:40:00.501Z,-0.63
2022-12-19T13:40:12.306Z,-0.64
2022-12-19T13:41:49.641Z,-0.64
2022-12-19T13:43:18.293Z,-0.65
2022-12-19T13:44:24.578Z,-0.65
2022-12-19T13:45:55.028Z,-0.65
2022-12-19T13:46:57.408Z,-0.64
2022-12-19T13:48:03.363Z,-0.65
2022-12-19T13:49:15.282Z,-0.66
2022-12-19T13:50:29.967Z,-0.64
2022-12-19T13:51:56.993Z,-0.66
2022-12-19T13:53:00.041Z,-0.64
2022-12-19T13:54:02.340Z,-0.64
2022-12-19T13:55:12.648Z,-0.67
2022-12-19T13:56:18.059Z,-0.72
2022-12-19T13:57:26.312Z,-0.74
2022-12-19T13:58:32.393Z,-0.73
2022-12-19T13:59:38.188Z,-0.75
2022-12-19T14:00:42.945Z,-0.72
2022-12-19T14:01:45.507Z,-0.69
2022-12-19T14:02:54.645Z,-0.73
2022-12-19T14:04:07.663Z,-0.72
2022-12-19T14:05:34.116Z,-0.70
2022-12-19T14:06:50.521Z,-0.71
2022-12-19T14:07:53.548Z,-0.69
2022-12-19T14:11:27.886Z,-0.70
2022-12-19T14:11:32.247Z,-0.68
2022-12-19T14:12:19.878Z,-0.70
2022-12-19T14:14:00.276Z,-0.72
2022-12-19T14:15:22.392Z,-0.76
2022-12-19T14:16:43.795Z,-0.77
2022-12-19T14:17:50.854Z,-0.75
2022-12-19T14:18:56.301Z,-0.76
2022-12-19T14:20:15.489Z,-0.77
2022-12-19T14:22:07.141Z,-0.75
2022-12-19T14:23:01.968Z,-0.74
2022-12-19T14:24:25.125Z,-0.79
2022-12-19T14:28:17.937Z,-0.78
2022-12-19T14:28:22.204Z,-0.77
2022-12-19T14:28:54.436Z,-0.79
2022-12-19T14:30:27.635Z,-0.79
2022-12-19T14:31:23.395Z,-0.78
2022-12-19T14:33:45.142Z,-0.76
2022-12-19T14:34:18.964Z,-0.78
2022-12-19T14:36:10.557Z,-0.79
2022-12-19T14:36:48.510Z,-0.81
2022-12-19T14:39:22.431Z,-0.80
2022-12-19T14:39:32.639Z,-0.82
2022-12-19T14:41:00.189Z,-0.81
2022-12-19T14:43:06.295Z,-0.82
2022-12-19T14:54:02.600Z,-0.82
2022-12-19T14:54:05.912Z,-0.88
2022-12-19T14:54:07.008Z,-0.90
2022-12-19T14:54:11.033Z,-0.89
2022-12-19T14:54:40.346Z,-0.91
2022-12-19T14:54:40.650Z,-0.90
2022-12-19T14:54:50.609Z,-0.97
2022-12-19T14:56:00.519Z,-0.99
2022-12-19T14:58:51.337Z,-0.98
2022-12-19T14:58:57.161Z,-0.97
2022-12-19T14:59:59.694Z,-0.96
2022-12-19T15:01:09.783Z,-0.97
2022-12-19T15:02:28.004Z,-0.97
2022-12-19T15:04:47.303Z,-0.99
2022-12-19T15:05:14.860Z,-0.99
2022-12-19T15:07:06.768Z,-1.01
2022-12-19T15:07:45.834Z,-1.05
2022-12-19T15:09:02.441Z,-1.02
2022-12-19T15:11:03.852Z,-1.01
2022-12-19T15:14:50.605Z,-1.01
2022-12-19T15:14:53.739Z,-1.00
2022-12-19T15:15:59.502Z,-1.01
2022-12-19T15:17:06.767Z,-0.97
2022-12-19T15:18:33.954Z,-0.98